createdAt,value
2022-10-22T00:02:09.800Z,24.40
2022-10-22T00:04:39.077Z,24.40
2022-10-22T00:07:08.338Z,24.40
2022-10-22T00:09:37.485Z,24.40
2022-10-22T00:12:07.424Z,24.40
2022-10-22T00:14:36.685Z,24.50
2022-10-22T00:17:08.219Z,24.50
2022-10-22T00:19:40.222Z,24.50
2022-10-22T00:22:11.384Z,24.50
2022-10-22T00:24:41.699Z,24.50
2022-10-22T00:27:12.980Z,24.50
2022-10-22T00:29:42.141Z,24.50
2022-10-22T00:32:11.401Z,24.50
2022-10-22T00:34:40.701Z,24.50
2022-10-22T00:37:09.926Z,24.50
2022-10-22T00:39:39.540Z,24.60
2022-10-22T00:42:08.837Z,24.60
2022-10-22T00:45:06.132Z,24.60
2022-10-22T00:47:43.057Z,24.60
2022-10-22T00:50:17.353Z,24.60
2022-10-22T00:52:46.963Z,24.60
2022-10-22T00:55:17.702Z,24.60
2022-10-22T00:57:47.589Z,24.60
2022-10-22T01:00:17.614Z,24.60
2022-10-22T01:02:46.937Z,24.60
2022-10-22T01:05:16.422Z,24.70
2022-10-22T01:07:50.973Z,24.70
2022-10-22T01:10:23.088Z,24.70
2022-10-22T01:12:56.763Z,24.70
2022-10-22T01:15:50.851Z,24.80
2022-10-22T01:18:31.708Z,24.80
2022-10-22T01:21:24.830Z,24.80
2022-10-22T01:24:28.985Z,24.80
2022-10-22T01:27:33.845Z,24.90
2022-10-22T01:30:10.447Z,24.90
2022-10-22T01:32:49.905Z,25.00
2022-10-22T01:35:26.237Z,25.00
2022-10-22T01:37:59.909Z,25.00
2022-10-22T01:40:31.308Z,25.10
2022-10-22T01:43:05.218Z,25.10
2022-10-22T01:45:40.164Z,25.20
2022-10-22T01:48:24.691Z,25.30
2022-10-22T01:51:25.177Z,25.30
2022-10-22T01:54:15.459Z,25.40
2022-10-22T01:57:23.839Z,25.40
2022-10-22T02:00:02.437Z,25.50
2022-10-22T02:02:59.149Z,25.60
2022-10-22T02:05:36.755Z,25.60
2022-10-22T02:08:11.942Z,25.60
2022-10-22T02:10:43.836Z,25.70
2022-10-22T02:13:19.061Z,25.80
2022-10-22T02:15:51.031Z,25.90
2022-10-22T02:18:23.907Z,25.90
2022-10-22T02:20:52.792Z,26.00
2022-10-22T02:23:23.682Z,26.20
2022-10-22T02:26:10.152Z,26.40
2022-10-22T02:28:48.075Z,26.50
2022-10-22T02:31:24.563Z,26.60
2022-10-22T02:33:58.282Z,26.70
2022-10-22T02:36:27.945Z,26.80
2022-10-22T02:38:57.992Z,26.80
2022-10-22T02:41:27.222Z,26.80
2022-10-22T02:43:57.825Z,26.70
2022-10-22T02:46:28.183Z,26.70
2022-10-22T02:48:57.502Z,26.60
2022-10-22T02:51:26.781Z,26.50
2022-10-22T02:53:56.023Z,26.50
2022-10-22T02:56:25.329Z,26.60
2022-10-22T02:58:54.590Z,26.60
2022-10-22T03:01:24.138Z,26.50
2022-10-22T03:03:53.498Z,26.60
2022-10-22T03:06:22.795Z,26.60
2022-10-22T03:08:52.219Z,26.60
2022-10-22T03:11:21.583Z,26.60
2022-10-22T03:13:50.716Z,26.60
2022-10-22T03:16:19.954Z,26.60
2022-10-22T03:18:49.194Z,26.60
2022-10-22T03:21:35.185Z,26.60
2022-10-22T03:24:10.305Z,26.60
2022-10-22T03:26:41.436Z,26.60
2022-10-22T03:29:14.783Z,26.60
2022-10-22T03:31:44.055Z,26.70
2022-10-22T03:34:14.900Z,26.70
2022-10-22T03:36:44.791Z,26.70
2022-10-22T03:39:16.569Z,26.70
2022-10-22T03:41:46.059Z,26.80
2022-10-22T03:44:16.269Z,26.80
2022-10-22T03:46:45.752Z,26.80
2022-10-22T03:49:15.073Z,26.80
2022-10-22T03:51:44.411Z,26.90
2022-10-22T03:54:13.710Z,26.90
2022-10-22T03:56:42.936Z,26.90
2022-10-22T03:59:12.335Z,27.00
2022-10-22T04:01:41.907Z,27.00
2022-10-22T04:04:11.283Z,27.00
2022-10-22T04:06:40.466Z,27.00
2022-10-22T04:09:09.777Z,27.10
2022-10-22T04:11:38.926Z,27.10
2022-10-22T04:14:08.251Z,27.10
2022-10-22T04:16:37.421Z,27.10
2022-10-22T04:19:06.983Z,27.10
2022-10-22T04:21:37.065Z,27.20
2022-10-22T04:24:06.832Z,27.20
2022-10-22T04:26:35.978Z,27.20
2022-10-22T04:29:05.807Z,27.30
2022-10-22T04:31:35.026Z,27.30
2022-10-22T04:34:04.453Z,27.30
2022-10-22T04:36:33.632Z,27.30
2022-10-22T04:39:03.898Z,27.30
2022-10-22T04:41:36.212Z,27.30
2022-10-22T04:44:06.288Z,27.30
2022-10-22T04:46:37.713Z,27.30
2022-10-22T04:49:06.976Z,27.30
2022-10-22T04:51:36.266Z,27.20
2022-10-22T04:54:05.649Z,27.20
2022-10-22T04:56:34.982Z,27.10
2022-10-22T04:59:07.666Z,27.00
2022-10-22T05:01:42.717Z,27.00
2022-10-22T05:04:17.856Z,27.00
2022-10-22T05:06:48.388Z,27.00
2022-10-22T05:09:20.975Z,27.10
2022-10-22T05:11:52.563Z,27.10
2022-10-22T05:14:24.680Z,27.20
2022-10-22T05:16:54.871Z,27.30
2022-10-22T05:19:27.424Z,27.40
2022-10-22T05:21:59.276Z,27.40
2022-10-22T05:24:30.646Z,27.50
2022-10-22T05:27:01.207Z,27.50
2022-10-22T05:29:30.553Z,27.60
2022-10-22T05:31:59.743Z,27.60
2022-10-22T05:34:29.043Z,27.60
2022-10-22T05:36:58.258Z,27.60
2022-10-22T05:39:27.434Z,27.60
2022-10-22T05:41:56.806Z,27.60
2022-10-22T05:44:26.098Z,27.60
2022-10-22T05:46:55.320Z,27.60
2022-10-22T05:49:24.595Z,27.60
2022-10-22T05:51:53.878Z,27.50
2022-10-22T05:54:24.591Z,27.50
2022-10-22T05:56:53.890Z,27.50
2022-10-22T05:59:23.111Z,27.50
2022-10-22T06:01:52.467Z,27.50
2022-10-22T06:04:21.814Z,27.40
2022-10-22T06:06:54.929Z,27.40
2022-10-22T06:09:26.687Z,27.30
2022-10-22T06:11:57.067Z,27.30
2022-10-22T06:14:27.333Z,27.40
2022-10-22T06:16:57.465Z,27.40
2022-10-22T06:19:28.243Z,27.40
2022-10-22T06:21:57.575Z,27.50
2022-10-22T06:24:26.818Z,27.60
2022-10-22T06:26:56.081Z,27.60
2022-10-22T06:29:25.289Z,27.60
2022-10-22T06:31:54.551Z,27.60
2022-10-22T06:34:23.820Z,27.60
2022-10-22T06:36:53.120Z,27.60
2022-10-22T06:39:22.448Z,27.60
2022-10-22T06:41:51.825Z,27.70
2022-10-22T06:44:22.474Z,27.70
2022-10-22T06:46:54.403Z,27.70
2022-10-22T06:49:23.739Z,27.80
2022-10-22T06:51:55.033Z,27.90
2022-10-22T06:54:24.994Z,28.00
2022-10-22T06:56:54.252Z,28.00
2022-10-22T06:59:23.556Z,28.00
2022-10-22T07:01:52.808Z,28.10
2022-10-22T07:04:22.085Z,28.20
2022-10-22T07:06:51.414Z,28.20
2022-10-22T07:09:20.625Z,28.30
2022-10-22T07:11:53.761Z,28.30
2022-10-22T07:14:24.990Z,28.30
2022-10-22T07:16:55.273Z,28.30
2022-10-22T07:19:24.500Z,28.30
2022-10-22T07:21:53.728Z,28.30
2022-10-22T07:24:23.070Z,28.30
2022-10-22T07:26:52.347Z,28.30
2022-10-22T07:29:21.611Z,28.30
2022-10-22T07:31:50.814Z,28.30
2022-10-22T07:36:53.921Z,28.40
2022-10-22T07:39:23.097Z,28.30
2022-10-22T07:41:52.305Z,28.30
2022-10-22T07:44:21.532Z,28.30
2022-10-22T07:46:50.764Z,28.30
2022-10-22T07:49:19.994Z,28.20
2022-10-22T07:51:49.256Z,28.20
2022-10-22T07:54:18.527Z,28.10
2022-10-22T07:56:47.746Z,28.10
2022-10-22T07:59:17.061Z,28.10
2022-10-22T08:01:48.251Z,28.10
2022-10-22T08:04:17.458Z,28.10
2022-10-22T08:06:47.410Z,28.10
2022-10-22T08:09:17.313Z,28.10
2022-10-22T08:11:47.653Z,28.10
2022-10-22T08:14:17.689Z,28.10
2022-10-22T08:16:47.832Z,28.10
2022-10-22T08:19:22.182Z,28.20
2022-10-22T08:21:51.467Z,28.20
2022-10-22T08:24:20.664Z,28.20
2022-10-22T08:26:50.155Z,28.20
2022-10-22T08:29:19.360Z,28.10
2022-10-22T08:31:48.590Z,28.20
2022-10-22T08:34:18.742Z,28.20
2022-10-22T08:36:48.506Z,28.20
2022-10-22T08:39:17.743Z,28.20
2022-10-22T08:42:22.268Z,28.10
2022-10-22T08:45:06.898Z,28.10
2022-10-22T08:47:45.559Z,28.10
2022-10-22T08:50:21.008Z,28.10
2022-10-22T08:52:55.608Z,28.10
2022-10-22T08:55:27.078Z,28.10
2022-10-22T08:58:20.316Z,28.10
2022-10-22T09:00:52.464Z,28.10
2022-10-22T09:03:42.770Z,28.10
2022-10-22T09:06:17.505Z,28.00
2022-10-22T09:08:48.583Z,27.90
2022-10-22T09:11:34.297Z,27.80
2022-10-22T09:14:04.649Z,27.70
2022-10-22T09:16:36.199Z,27.70
2022-10-22T09:19:20.806Z,27.60
2022-10-22T09:22:29.239Z,27.50
2022-10-22T09:25:13.035Z,27.50
2022-10-22T09:27:42.701Z,27.40
2022-10-22T09:30:21.029Z,27.40
2022-10-22T09:33:03.449Z,27.40
2022-10-22T09:35:36.885Z,27.30
2022-10-22T09:38:10.269Z,27.20
2022-10-22T09:40:51.148Z,27.20
2022-10-22T09:43:21.332Z,27.20
2022-10-22T09:45:57.447Z,27.10
2022-10-22T09:48:44.719Z,27.10
2022-10-22T09:51:22.035Z,27.10
2022-10-22T09:54:03.698Z,27.10
2022-10-22T09:56:38.450Z,27.10
2022-10-22T09:59:15.783Z,27.10
2022-10-22T10:01:46.014Z,27.10
2022-10-22T10:04:18.013Z,27.00
2022-10-22T10:06:47.866Z,27.00
2022-10-22T10:09:20.346Z,27.00
2022-10-22T10:11:58.817Z,27.00
2022-10-22T10:14:40.818Z,27.00
2022-10-22T10:17:35.111Z,27.00
2022-10-22T10:20:24.785Z,26.90
2022-10-22T10:23:01.144Z,26.90
2022-10-22T10:25:44.870Z,26.90
2022-10-22T10:28:15.959Z,26.90
2022-10-22T10:31:05.613Z,26.90
2022-10-22T10:33:43.775Z,26.90
2022-10-22T10:36:14.950Z,26.90
2022-10-22T10:38:58.024Z,26.90
2022-10-22T10:41:28.135Z,26.90
2022-10-22T10:44:22.771Z,26.90
2022-10-22T10:46:52.816Z,26.80
2022-10-22T10:49:26.456Z,26.90
2022-10-22T10:52:18.871Z,26.80
2022-10-22T10:54:54.784Z,26.80
2022-10-22T10:58:03.182Z,26.80
2022-10-22T11:00:38.679Z,26.70
2022-10-22T11:03:26.311Z,26.70
2022-10-22T11:06:04.357Z,26.70
2022-10-22T11:09:04.150Z,26.60
2022-10-22T11:11:41.791Z,26.60
2022-10-22T11:14:37.109Z,26.60
2022-10-22T11:17:13.105Z,26.50
2022-10-22T11:19:57.790Z,26.50
2022-10-22T11:22:36.318Z,26.50
2022-10-22T11:25:09.769Z,26.40
2022-10-22T11:27:49.429Z,26.40
2022-10-22T11:30:23.270Z,26.40
2022-10-22T11:32:56.776Z,26.30
2022-10-22T11:35:30.382Z,26.30
2022-10-22T11:38:00.574Z,26.30
2022-10-22T11:40:52.641Z,26.20
2022-10-22T11:43:31.532Z,26.20
2022-10-22T11:46:10.599Z,26.20
2022-10-22T11:48:40.583Z,26.20
2022-10-22T11:51:45.240Z,26.20
2022-10-22T11:54:34.448Z,26.10
2022-10-22T11:57:20.329Z,26.10
2022-10-22T11:59:51.454Z,26.10
2022-10-22T12:02:30.104Z,26.10
2022-10-22T12:05:26.903Z,26.10
2022-10-22T12:08:08.805Z,26.10
2022-10-22T12:11:11.508Z,26.00
2022-10-22T12:14:00.095Z,26.00
2022-10-22T12:16:55.139Z,26.00
2022-10-22T12:19:27.021Z,26.00
2022-10-22T12:22:00.422Z,26.00
2022-10-22T12:24:36.108Z,26.00
2022-10-22T12:27:05.790Z,26.00
2022-10-22T12:29:35.493Z,25.90
2022-10-22T12:32:06.047Z,25.90
2022-10-22T12:34:35.283Z,25.90
2022-10-22T12:37:07.390Z,25.90
2022-10-22T12:39:36.990Z,25.90
2022-10-22T12:42:09.416Z,25.90
2022-10-22T12:44:38.634Z,25.90
2022-10-22T12:47:10.080Z,25.90
2022-10-22T12:49:43.434Z,25.90
2022-10-22T12:52:19.327Z,25.80
2022-10-22T12:54:55.020Z,25.80
2022-10-22T12:57:26.064Z,25.80
2022-10-22T12:59:55.381Z,25.80
2022-10-22T13:02:27.857Z,25.80
2022-10-22T13:05:20.721Z,25.80
2022-10-22T13:07:52.380Z,25.80
2022-10-22T13:10:28.685Z,25.80
2022-10-22T13:13:00.292Z,25.80
2022-10-22T13:15:32.546Z,25.80
2022-10-22T13:18:22.354Z,25.80
2022-10-22T13:20:57.554Z,25.80
2022-10-22T13:23:29.371Z,25.80
2022-10-22T13:26:03.243Z,25.80
2022-10-22T13:28:34.649Z,25.80
2022-10-22T13:31:13.233Z,25.80
2022-10-22T13:33:45.244Z,25.80
2022-10-22T13:36:18.096Z,25.80
2022-10-22T13:38:46.974Z,25.80
2022-10-22T13:41:33.845Z,25.80
2022-10-22T13:44:03.103Z,25.80
2022-10-22T13:46:33.139Z,25.80
2022-10-22T13:49:02.465Z,25.80
2022-10-22T13:51:36.309Z,25.80
2022-10-22T13:54:11.924Z,25.80
2022-10-22T13:56:41.123Z,25.80
2022-10-22T13:59:11.648Z,25.70
2022-10-22T14:01:41.832Z,25.70
2022-10-22T14:04:16.684Z,25.70
2022-10-22T14:06:46.077Z,25.70
2022-10-22T14:09:19.607Z,25.70
2022-10-22T14:11:48.890Z,25.70
2022-10-22T14:14:18.589Z,25.70
2022-10-22T14:16:47.998Z,25.70
2022-10-22T14:19:19.520Z,25.60
2022-10-22T14:21:50.568Z,25.60
2022-10-22T14:24:19.702Z,25.60
2022-10-22T14:26:48.950Z,25.60
2022-10-22T14:29:18.208Z,25.60
2022-10-22T14:31:47.547Z,25.60
2022-10-22T14:34:18.308Z,25.60
2022-10-22T14:36:48.762Z,25.60
2022-10-22T14:39:19.823Z,25.60
2022-10-22T14:41:49.751Z,25.60
2022-10-22T14:44:19.096Z,25.60
2022-10-22T14:46:48.503Z,25.60
2022-10-22T14:49:17.699Z,25.60
2022-10-22T14:51:46.880Z,25.60
2022-10-22T14:54:16.281Z,25.60
2022-10-22T14:56:46.046Z,25.60
2022-10-22T14:59:15.270Z,25.60
2022-10-22T15:01:45.001Z,25.60
2022-10-22T15:04:14.710Z,25.50
2022-10-22T15:06:43.976Z,25.50
2022-10-22T15:09:13.220Z,25.50
2022-10-22T15:11:44.082Z,25.50
2022-10-22T15:14:13.226Z,25.50
2022-10-22T15:16:42.424Z,25.50
2022-10-22T15:19:12.549Z,25.50
2022-10-22T15:24:15.825Z,25.50
2022-10-22T15:26:45.104Z,25.50
2022-10-22T15:29:14.686Z,25.50
2022-10-22T15:31:52.087Z,25.50
2022-10-22T15:34:25.251Z,25.50
2022-10-22T15:36:57.416Z,25.50
2022-10-22T15:39:27.379Z,25.50
2022-10-22T15:41:58.254Z,25.50
2022-10-22T15:44:30.519Z,25.40
2022-10-22T15:47:00.423Z,25.40
2022-10-22T15:49:30.701Z,25.50
2022-10-22T15:51:59.869Z,25.40
2022-10-22T15:54:31.647Z,25.40
2022-10-22T15:57:03.682Z,25.40
2022-10-22T15:59:33.086Z,25.40
2022-10-22T16:02:02.313Z,25.50
2022-10-22T16:04:31.670Z,25.40
2022-10-22T16:07:01.004Z,25.40
2022-10-22T16:09:30.517Z,25.40
2022-10-22T16:11:59.764Z,25.40
2022-10-22T16:14:30.123Z,25.40
2022-10-22T16:17:01.036Z,25.40
2022-10-22T16:19:30.377Z,25.50
2022-10-22T16:22:00.891Z,25.50
2022-10-22T16:24:30.601Z,25.40
2022-10-22T16:27:00.182Z,25.40
2022-10-22T16:29:29.547Z,25.40
2022-10-22T16:31:58.876Z,25.40
2022-10-22T16:34:29.715Z,25.40
2022-10-22T16:36:58.905Z,25.40
2022-10-22T16:39:28.101Z,25.40
2022-10-22T16:41:57.452Z,25.40
2022-10-22T16:44:26.751Z,25.30
2022-10-22T16:46:56.091Z,25.40
2022-10-22T16:49:25.467Z,25.40
2022-10-22T16:51:54.743Z,25.40
2022-10-22T16:54:24.124Z,25.30
2022-10-22T16:56:53.678Z,25.30
2022-10-22T17:03:19.388Z,25.30
2022-10-22T17:05:48.668Z,25.40
2022-10-22T17:08:17.927Z,25.30
2022-10-22T17:10:47.171Z,25.30
2022-10-22T17:13:16.443Z,25.30
2022-10-22T17:15:46.136Z,25.40
2022-10-22T17:18:15.514Z,25.30
2022-10-22T17:20:45.653Z,25.30
2022-10-22T17:23:14.842Z,25.30
2022-10-22T17:25:45.787Z,25.30
2022-10-22T17:28:15.020Z,25.30
2022-10-22T17:30:44.275Z,25.30
2022-10-22T17:33:13.530Z,25.30
2022-10-22T17:35:43.103Z,25.30
2022-10-22T17:38:12.404Z,25.20
2022-10-22T17:40:41.582Z,25.30
2022-10-22T17:43:10.784Z,25.20
2022-10-22T17:45:39.968Z,25.20
2022-10-22T17:48:09.178Z,25.20
2022-10-22T17:50:46.884Z,25.20
2022-10-22T17:53:18.856Z,25.20
2022-10-22T17:55:48.094Z,25.20
2022-10-22T17:58:17.333Z,25.20
2022-10-22T18:00:47.546Z,25.10
2022-10-22T18:03:16.802Z,25.10
2022-10-22T18:05:46.003Z,25.10
2022-10-22T18:08:15.599Z,25.10
2022-10-22T18:10:44.837Z,25.10
2022-10-22T18:13:14.228Z,25.10
2022-10-22T18:15:43.389Z,25.10
2022-10-22T18:18:12.683Z,25.10
2022-10-22T18:20:41.910Z,25.10
2022-10-22T18:23:11.267Z,25.10
2022-10-22T18:25:41.507Z,25.10
2022-10-22T18:28:12.191Z,25.10
2022-10-22T18:30:42.373Z,25.10
2022-10-22T18:33:14.446Z,25.10
2022-10-22T18:35:44.261Z,25.10
2022-10-22T18:38:13.465Z,25.10
2022-10-22T18:40:51.131Z,25.10
2022-10-22T18:43:20.447Z,25.10
2022-10-22T18:45:50.293Z,25.00
2022-10-22T18:48:24.402Z,25.00
2022-10-22T18:51:03.093Z,25.00
2022-10-22T18:53:32.515Z,25.00
2022-10-22T18:56:02.136Z,25.00
2022-10-22T18:58:31.563Z,25.00
2022-10-22T19:01:00.798Z,25.00
2022-10-22T19:03:30.053Z,25.00
2022-10-22T19:06:01.351Z,25.00
2022-10-22T19:08:30.610Z,24.90
2022-10-22T19:11:00.238Z,24.90
2022-10-22T19:13:29.848Z,24.90
2022-10-22T19:16:05.445Z,24.90
2022-10-22T19:18:35.330Z,24.90
2022-10-22T19:21:04.969Z,24.90
2022-10-22T19:23:34.292Z,24.90
2022-10-22T19:26:08.733Z,24.90
2022-10-22T19:28:38.673Z,24.90
2022-10-22T19:31:13.887Z,24.90
2022-10-22T19:33:43.960Z,24.90
2022-10-22T19:36:15.936Z,24.80
2022-10-22T19:38:47.822Z,24.80
2022-10-22T19:41:19.409Z,24.80
2022-10-22T19:43:53.011Z,24.80
2022-10-22T19:46:24.785Z,24.80
2022-10-22T19:48:54.316Z,24.80
2022-10-22T19:51:27.189Z,24.80
2022-10-22T19:54:13.697Z,24.80
2022-10-22T19:56:42.961Z,24.80
2022-10-22T19:59:12.265Z,24.80
2022-10-22T20:01:41.599Z,24.70
2022-10-22T20:04:15.800Z,24.70
2022-10-22T20:06:45.388Z,24.70
2022-10-22T20:09:15.600Z,24.60
2022-10-22T20:11:45.325Z,24.60
2022-10-22T20:14:15.760Z,24.60
2022-10-22T20:16:45.192Z,24.60
2022-10-22T20:19:17.447Z,24.60
2022-10-22T20:21:49.765Z,24.60
2022-10-22T20:24:19.110Z,24.60
2022-10-22T20:26:49.253Z,24.60
2022-10-22T20:29:20.458Z,24.60
2022-10-22T20:31:50.193Z,24.60
2022-10-22T20:34:19.601Z,24.60
2022-10-22T20:36:49.305Z,24.60
2022-10-22T20:39:18.618Z,24.60
2022-10-22T20:41:47.785Z,24.60
2022-10-22T20:44:19.360Z,24.60
2022-10-22T20:46:48.580Z,24.60
2022-10-22T20:49:18.983Z,24.60
2022-10-22T20:51:48.400Z,24.60
2022-10-22T20:54:17.990Z,24.60
2022-10-22T20:56:49.331Z,24.60
2022-10-22T20:59:18.805Z,24.60
2022-10-22T21:01:51.487Z,24.60
2022-10-22T21:04:22.700Z,24.60
2022-10-22T21:06:53.518Z,24.60
2022-10-22T21:09:23.280Z,24.60
2022-10-22T21:14:27.164Z,24.60
2022-10-22T21:16:56.497Z,24.60
2022-10-22T21:19:26.226Z,24.60
2022-10-22T21:21:55.664Z,24.60
2022-10-22T21:24:26.236Z,24.60
2022-10-22T21:26:55.802Z,24.60
2022-10-22T21:29:25.040Z,24.60
2022-10-22T21:31:55.258Z,24.70
2022-10-22T21:34:24.485Z,24.70
2022-10-22T21:36:54.482Z,24.60
2022-10-22T21:39:23.732Z,24.70
2022-10-22T21:41:53.017Z,24.70
2022-10-22T21:44:22.251Z,24.60
2022-10-22T21:46:51.484Z,24.60
2022-10-22T21:49:20.964Z,24.60
2022-10-22T21:51:50.241Z,24.60
2022-10-22T21:54:19.721Z,24.60
2022-10-22T21:56:50.388Z,24.60
2022-10-22T21:59:22.645Z,24.60
2022-10-22T22:01:51.792Z,24.60
2022-10-22T22:04:21.085Z,24.60
2022-10-22T22:06:50.323Z,24.60
2022-10-22T22:09:19.999Z,24.60
2022-10-22T22:11:49.366Z,24.60
2022-10-22T22:14:18.549Z,24.60
2022-10-22T22:16:47.758Z,24.60
2022-10-22T22:19:16.999Z,24.60
2022-10-22T22:21:46.212Z,24.60
2022-10-22T22:24:15.864Z,24.60
2022-10-22T22:26:45.081Z,24.60
2022-10-22T22:29:14.319Z,24.60
2022-10-22T22:31:44.947Z,24.60
2022-10-22T22:34:16.689Z,24.60
2022-10-22T22:36:48.417Z,24.60
2022-10-22T22:39:22.423Z,24.60
2022-10-22T22:41:52.020Z,24.60
2022-10-22T22:44:21.250Z,24.60
2022-10-22T22:46:51.241Z,24.60
2022-10-22T22:49:20.517Z,24.50
2022-10-22T22:51:51.341Z,24.50
2022-10-22T22:54:20.597Z,24.50
2022-10-22T22:56:52.401Z,24.50
2022-10-22T22:59:21.637Z,24.50
2022-10-22T23:01:52.091Z,24.50
2022-10-22T23:04:25.263Z,24.50
2022-10-22T23:06:54.689Z,24.40
2022-10-22T23:09:23.883Z,24.40
2022-10-22T23:11:53.287Z,24.40
2022-10-22T23:14:22.572Z,24.30
2022-10-22T23:16:55.606Z,24.30
2022-10-22T23:19:25.995Z,24.20
2022-10-22T23:21:57.383Z,24.20
2022-10-22T23:24:30.397Z,24.20
2022-10-22T23:27:02.007Z,24.20
2022-10-22T23:29:37.802Z,24.20
2022-10-22T23:32:09.972Z,24.20
2022-10-22T23:34:39.544Z,24.20
2022-10-22T23:37:08.897Z,24.20
2022-10-22T23:39:38.149Z,24.20
2022-10-22T23:42:07.398Z,24.20
2022-10-22T23:44:36.621Z,24.30
2022-10-22T23:47:05.879Z,24.30
2022-10-22T23:49:35.163Z,24.30
2022-10-22T23:52:04.360Z,24.30
2022-10-22T23:54:33.714Z,24.30
2022-10-22T23:57:02.979Z,24.20
2022-10-22T23:59:32.192Z,24.20
